Time;durP1;ratioP1;P1;durP2;ratioP2;P2;SDS_P1;SDS_P2;PMS_P1;PMS_P2;Temp;Humidity;BMP_temperature;BMP_pressure;BME280_temperature;BME280_humidity;BME280_pressure;Samples;Min_cycle;Max_cycle;Signal;HPM_P1;HPM_P2
2022/05/17 00:01:24;;;;;;;8.15;3.83;;;24.70;43.00;;;;;;6283810;27;80444;-65
2022/05/17 00:04:24;;;;;;;6.03;3.45;;;24.70;43.00;;;;;;6283017;27;81502;-65
2022/05/17 00:07:25;;;;;;;5.75;3.38;;;24.70;43.10;;;;;;6283242;27;80318;-65
2022/05/17 00:10:25;;;;;;;8.43;3.45;;;24.60;43.00;;;;;;6281536;27;80573;-65
2022/05/17 00:13:26;;;;;;;6.88;3.55;;;24.70;43.00;;;;;;6273904;27;81620;-65
2022/05/17 00:16:27;;;;;;;5.93;3.38;;;24.70;43.10;;;;;;6238467;27;1157767;-65
2022/05/17 00:19:28;;;;;;;5.50;3.53;;;24.60;43.00;;;;;;6284832;27;80477;-65
2022/05/17 00:22:29;;;;;;;11.35;3.85;;;24.60;43.10;;;;;;6284648;27;80495;-65
2022/05/17 00:25:29;;;;;;;4.28;2.95;;;24.60;43.10;;;;;;6281041;27;80505;-65
2022/05/17 00:28:30;;;;;;;6.95;3.28;;;24.60;43.00;;;;;;6282924;27;80394;-66
2022/05/17 00:31:30;;;;;;;5.10;2.80;;;24.60;43.00;;;;;;6283152;27;81295;-65
2022/05/17 00:34:31;;;;;;;5.72;3.22;;;24.60;43.00;;;;;;6269986;27;80460;-65
2022/05/17 00:37:31;;;;;;;5.47;3.60;;;24.60;43.00;;;;;;6284335;27;80425;-65
2022/05/17 00:40:32;;;;;;;4.15;2.65;;;24.60;43.00;;;;;;6283463;27;81799;-65
2022/05/17 00:46:53;;;;;;;4.40;2.97;;;24.60;43.00;;;;;;6257067;27;80770;-65
2022/05/17 00:49:54;;;;;;;6.68;3.22;;;24.60;43.00;;;;;;6271857;27;79996;-64
2022/05/17 00:52:54;;;;;;;9.57;3.53;;;24.60;43.00;;;;;;6282885;27;81712;-64
2022/05/17 00:55:55;;;;;;;3.97;2.55;;;24.60;43.00;;;;;;6282076;27;80398;-64
2022/05/17 00:58:55;;;;;;;5.47;2.92;;;24.60;43.00;;;;;;6282824;27;80517;-64
2022/05/17 01:01:56;;;;;;;5.00;3.05;;;24.60;43.00;;;;;;6283721;27;81531;-64
2022/05/17 01:04:56;;;;;;;5.93;3.33;;;24.60;42.90;;;;;;6283886;27;80973;-64
2022/05/17 01:07:57;;;;;;;8.55;3.80;;;24.60;43.00;;;;;;6276361;27;82661;-65
2022/05/17 01:10:57;;;;;;;5.18;3.08;;;24.60;42.90;;;;;;6284156;27;80335;-65
2022/05/17 01:17:18;;;;;;;4.65;3.00;;;24.60;42.90;;;;;;6282539;27;81871;-64
2022/05/17 01:20:18;;;;;;;6.10;3.10;;;24.60;43.00;;;;;;6283982;27;80238;-64
2022/05/17 01:23:18;;;;;;;3.88;2.70;;;24.60;42.90;;;;;;6283799;27;80288;-64
2022/05/17 01:26:20;;;;;;;5.95;3.08;;;24.60;43.00;;;;;;6283480;27;80499;-65
2022/05/17 01:29:20;;;;;;;8.38;3.08;;;24.60;43.00;;;;;;6277421;27;82560;-65
2022/05/17 01:32:21;;;;;;;6.85;3.33;;;24.60;43.00;;;;;;6283901;27;80357;-64
2022/05/17 01:35:22;;;;;;;4.18;3.10;;;24.60;43.00;;;;;;6283273;27;80338;-64
2022/05/17 01:38:22;;;;;;;10.32;3.22;;;24.60;43.00;;;;;;6272180;27;80736;-64
2022/05/17 01:41:25;;;;;;;5.95;3.00;;;24.60;42.90;;;;;;6273170;27;81902;-67
2022/05/17 01:44:25;;;;;;;6.57;2.97;;;24.60;43.00;;;;;;6271857;27;80373;-66
2022/05/17 01:47:26;;;;;;;8.27;2.65;;;24.60;43.00;;;;;;6283533;27;80377;-65
2022/05/17 01:50:26;;;;;;;7.13;3.10;;;24.60;43.00;;;;;;6277284;27;80803;-65
2022/05/17 01:53:27;;;;;;;5.50;2.92;;;24.50;42.90;;;;;;6280905;27;80370;-66
2022/05/17 01:56:27;;;;;;;3.05;2.40;;;24.60;43.00;;;;;;6283412;27;81589;-66
2022/05/17 01:59:28;;;;;;;4.65;2.70;;;24.50;43.00;;;;;;6283256;27;80378;-66
2022/05/17 02:02:29;;;;;;;3.67;2.50;;;24.50;43.00;;;;;;6283431;27;80281;-65
2022/05/17 02:05:29;;;;;;;4.50;2.75;;;24.50;43.10;;;;;;6273895;27;80446;-65
2022/05/17 02:08:30;;;;;;;5.97;2.92;;;24.50;43.00;;;;;;6282939;27;80596;-66
2022/05/17 02:11:30;;;;;;;3.13;2.30;;;24.50;43.10;;;;;;6282560;27;80845;-65
2022/05/17 02:14:31;;;;;;;5.15;2.63;;;24.50;43.00;;;;;;6281673;27;80450;-65
2022/05/17 02:17:32;;;;;;;5.47;2.72;;;24.50;43.00;;;;;;6282382;27;80637;-66
2022/05/17 02:20:32;;;;;;;4.00;2.58;;;24.50;43.00;;;;;;6282688;27;80482;-65
2022/05/17 02:23:33;;;;;;;3.15;2.20;;;24.50;42.90;;;;;;6282496;27;80426;-65
2022/05/17 02:26:34;;;;;;;6.60;2.80;;;24.50;43.00;;;;;;6282241;27;80209;-65
2022/05/17 02:29:34;;;;;;;3.88;2.20;;;24.50;42.90;;;;;;6281861;27;82179;-66
2022/05/17 02:32:35;;;;;;;2.67;2.28;;;24.50;42.90;;;;;;6281980;27;80225;-66
2022/05/17 02:35:35;;;;;;;4.57;2.40;;;24.50;43.00;;;;;;6281620;27;81076;-66
2022/05/17 02:38:36;;;;;;;3.47;2.05;;;24.50;42.90;;;;;;6281689;27;81286;-65
2022/05/17 02:41:37;;;;;;;4.10;2.67;;;24.50;42.90;;;;;;6277153;27;80611;-65
2022/05/17 02:44:37;;;;;;;3.38;2.10;;;24.50;42.90;;;;;;6281924;27;81320;-66
2022/05/17 02:47:38;;;;;;;3.83;2.38;;;24.40;42.90;;;;;;6282158;27;80472;-66
2022/05/17 02:50:38;;;;;;;3.08;2.10;;;24.50;43.00;;;;;;6281689;27;80465;-65
2022/05/17 02:53:39;;;;;;;5.55;2.58;;;24.50;42.90;;;;;;6286272;27;80360;-66
2022/05/17 02:56:40;;;;;;;4.05;2.35;;;24.50;43.00;;;;;;6286401;27;80437;-66
2022/05/17 02:59:40;;;;;;;5.47;2.28;;;24.40;42.90;;;;;;6286128;27;80803;-65
2022/05/17 03:02:43;;;;;;;3.78;2.30;;;24.40;42.90;;;;;;6285987;27;82045;-64
2022/05/17 03:05:43;;;;;;;5.03;2.20;;;24.40;43.00;;;;;;6284555;27;82206;-65
2022/05/17 03:08:45;;;;;;;5.18;2.70;;;24.40;43.00;;;;;;6285915;27;80503;-65
2022/05/17 03:11:45;;;;;;;6.07;2.28;;;24.40;43.10;;;;;;6285836;27;80861;-65
2022/05/17 03:14:46;;;;;;;5.40;2.65;;;24.40;43.10;;;;;;6285280;27;80459;-65
2022/05/17 03:17:46;;;;;;;2.70;1.98;;;24.40;43.10;;;;;;6285847;27;80606;-65
2022/05/17 03:20:47;;;;;;;3.80;2.00;;;24.40;43.10;;;;;;6285024;27;80098;-66
2022/05/17 03:23:47;;;;;;;4.00;2.50;;;24.40;43.10;;;;;;6286063;27;81038;-65
2022/05/17 03:26:48;;;;;;;5.70;2.40;;;24.40;43.10;;;;;;6285073;27;80505;-65
2022/05/17 03:29:48;;;;;;;3.47;2.28;;;24.40;43.20;;;;;;6285795;27;80210;-65
2022/05/17 03:32:49;;;;;;;4.47;2.78;;;24.40;43.10;;;;;;6283841;27;81645;-65
2022/05/17 03:35:49;;;;;;;3.92;2.40;;;24.40;43.20;;;;;;6283727;27;80747;-65
2022/05/17 03:38:50;;;;;;;3.60;2.58;;;24.40;43.20;;;;;;6284746;27;81540;-65
2022/05/17 03:41:51;;;;;;;2.88;2.40;;;24.40;43.20;;;;;;6281615;27;80565;-65
2022/05/17 03:44:52;;;;;;;4.10;2.42;;;24.40;43.20;;;;;;6284975;27;81280;-63
2022/05/17 03:47:52;;;;;;;4.43;2.50;;;24.40;43.20;;;;;;6285559;27;81685;-64
2022/05/17 03:50:53;;;;;;;6.05;3.03;;;24.40;43.20;;;;;;6284983;27;80619;-65
2022/05/17 03:53:54;;;;;;;5.25;2.70;;;24.40;43.20;;;;;;6285069;27;80775;-65
2022/05/17 03:56:54;;;;;;;5.78;2.83;;;24.40;43.00;;;;;;6282583;27;80586;-64
2022/05/17 03:59:55;;;;;;;6.75;2.70;;;24.40;43.10;;;;;;6284451;27;80192;-67
2022/05/17 04:02:55;;;;;;;13.25;2.85;;;24.40;43.10;;;;;;6285110;27;80318;-64
2022/05/17 04:05:56;;;;;;;7.72;2.65;;;24.40;43.40;;;;;;6285108;27;80637;-64
2022/05/17 04:08:56;;;;;;;4.20;2.40;;;24.50;43.50;;;;;;6282833;27;80369;-64
2022/05/17 04:11:57;;;;;;;4.45;2.20;;;24.50;43.70;;;;;;6283943;27;82073;-66
2022/05/17 04:14:57;;;;;;;6.78;2.65;;;24.50;43.80;;;;;;6283852;27;81477;-66
2022/05/17 04:17:59;;;;;;;4.95;3.13;;;24.60;43.80;;;;;;6264869;27;80628;-67
2022/05/17 04:20:59;;;;;;;5.00;2.83;;;24.60;44.10;;;;;;6285394;27;80385;-66
2022/05/17 04:24:00;;;;;;;3.92;2.65;;;24.60;44.00;;;;;;6276926;27;83409;-67
2022/05/17 04:27:00;;;;;;;4.20;2.33;;;24.60;44.10;;;;;;6284236;27;80318;-65
2022/05/17 04:30:01;;;;;;;3.65;2.20;;;24.60;44.20;;;;;;6283889;27;81825;-67
2022/05/17 04:33:01;;;;;;;7.60;2.83;;;24.60;43.90;;;;;;6281744;27;80520;-66
2022/05/17 04:36:02;;;;;;;5.55;2.38;;;24.60;44.10;;;;;;6277059;27;80703;-66
2022/05/17 04:39:03;;;;;;;3.42;2.50;;;24.60;44.30;;;;;;6273868;27;81680;-66
2022/05/17 04:42:03;;;;;;;4.35;2.53;;;24.60;44.40;;;;;;6271548;27;81615;-66
2022/05/17 04:45:04;;;;;;;5.93;2.60;;;24.60;44.50;;;;;;6283878;27;80405;-66
2022/05/17 04:48:04;;;;;;;5.47;2.70;;;24.60;44.60;;;;;;6282418;27;81575;-65
2022/05/17 04:51:05;;;;;;;4.55;2.40;;;24.70;44.50;;;;;;6270656;27;80729;-66
2022/05/17 04:54:05;;;;;;;3.33;2.13;;;24.70;44.90;;;;;;6280805;27;80596;-64
2022/05/17 04:57:06;;;;;;;3.72;2.35;;;24.60;44.90;;;;;;6283827;27;80500;-67
2022/05/17 05:00:06;;;;;;;5.03;2.25;;;24.60;44.70;;;;;;6283019;27;80564;-65
2022/05/17 05:03:07;;;;;;;4.50;2.58;;;24.70;44.80;;;;;;6279536;27;81700;-71
2022/05/17 05:06:07;;;;;;;4.97;2.75;;;24.70;44.70;;;;;;6284052;27;80947;-67
2022/05/17 05:09:10;;;;;;;9.13;3.13;;;24.60;44.60;;;;;;6283373;27;80615;-63
2022/05/17 05:12:10;;;;;;;11.38;3.10;;;24.60;44.30;;;;;;6282812;27;81701;-65
2022/05/17 05:15:11;;;;;;;5.75;3.08;;;24.60;44.00;;;;;;6282578;27;80016;-65
2022/05/17 05:18:11;;;;;;;6.18;3.50;;;24.60;43.90;;;;;;6283087;27;80511;-65
2022/05/17 05:21:12;;;;;;;6.55;3.38;;;24.50;43.70;;;;;;6282420;27;88750;-65
2022/05/17 05:24:12;;;;;;;5.63;2.90;;;24.40;43.70;;;;;;6283547;27;80313;-65
2022/05/17 05:27:13;;;;;;;7.05;3.75;;;24.40;43.70;;;;;;6281745;27;80289;-64
2022/05/17 05:30:13;;;;;;;7.05;3.15;;;24.40;43.80;;;;;;6278106;27;80277;-65
2022/05/17 05:33:14;;;;;;;8.45;3.72;;;24.40;43.80;;;;;;6282919;27;80291;-65
2022/05/17 05:36:15;;;;;;;8.63;3.90;;;24.30;43.60;;;;;;6282862;27;80372;-65
2022/05/17 05:39:15;;;;;;;6.80;3.78;;;24.30;43.70;;;;;;6282358;27;80190;-65
2022/05/17 05:42:16;;;;;;;8.25;3.30;;;24.30;43.70;;;;;;6273162;27;80407;-65
2022/05/17 05:45:16;;;;;;;9.00;3.72;;;24.30;43.90;;;;;;6282392;27;80420;-65
2022/05/17 05:48:19;;;;;;;7.45;3.75;;;24.30;43.90;;;;;;6282434;27;80774;-65
2022/05/17 05:51:19;;;;;;;9.38;3.58;;;24.30;43.90;;;;;;6277622;27;80301;-65
2022/05/17 05:54:20;;;;;;;5.95;3.70;;;24.30;43.90;;;;;;6282591;27;80812;-65
2022/05/17 05:57:20;;;;;;;6.43;3.38;;;24.30;44.00;;;;;;6282741;27;80372;-65
2022/05/17 06:00:21;;;;;;;8.95;4.05;;;24.30;44.00;;;;;;6282407;27;80932;-65
2022/05/17 06:03:21;;;;;;;8.85;4.13;;;24.30;44.00;;;;;;6278257;27;80465;-64
2022/05/17 06:06:21;;;;;;;9.70;3.65;;;24.30;44.20;;;;;;6282213;27;80815;-65
2022/05/17 06:09:22;;;;;;;9.35;3.58;;;24.30;44.20;;;;;;6282409;27;80486;-65
2022/05/17 06:12:23;;;;;;;9.32;3.40;;;24.30;44.30;;;;;;6282622;27;80422;-66
2022/05/17 06:15:24;;;;;;;9.52;4.18;;;24.30;44.30;;;;;;6281859;27;80809;-65
2022/05/17 06:18:25;;;;;;;8.95;3.60;;;24.30;44.30;;;;;;6282392;27;80519;-65
2022/05/17 06:21:25;;;;;;;14.25;3.67;;;24.20;44.20;;;;;;6280753;27;80417;-65
2022/05/17 06:24:27;;;;;;;9.70;3.83;;;24.20;44.30;;;;;;6284003;27;80503;-65
2022/05/17 06:27:29;;;;;;;7.40;3.85;;;24.20;44.30;;;;;;6286615;27;80259;-66
2022/05/17 06:30:30;;;;;;;6.10;3.70;;;24.30;44.40;;;;;;6286487;27;80714;-66
2022/05/17 06:33:31;;;;;;;14.63;4.05;;;24.30;44.40;;;;;;6286295;27;80268;-66
2022/05/17 06:36:32;;;;;;;11.40;3.78;;;24.20;44.40;;;;;;6286316;27;80024;-67
2022/05/17 06:39:32;;;;;;;12.52;4.35;;;24.30;44.50;;;;;;6286542;27;80691;-66
2022/05/17 06:42:33;;;;;;;8.90;3.67;;;24.20;44.40;;;;;;6280987;27;80544;-66
2022/05/17 06:45:34;;;;;;;8.85;3.90;;;24.30;44.60;;;;;;6286282;27;80894;-65
2022/05/17 06:48:34;;;;;;;8.88;4.00;;;24.30;44.70;;;;;;6286453;27;80430;-66
2022/05/17 06:51:37;;;;;;;12.68;3.80;;;24.30;44.60;;;;;;6286301;27;80216;-66
2022/05/17 06:54:40;;;;;;;6.05;4.05;;;24.30;44.60;;;;;;6286241;27;80688;-65
2022/05/17 06:57:41;;;;;;;9.85;4.20;;;24.30;44.60;;;;;;6285831;27;80233;-65
2022/05/17 07:00:41;;;;;;;8.10;3.25;;;24.30;44.70;;;;;;6285893;27;80538;-65
2022/05/17 07:03:42;;;;;;;13.25;4.68;;;24.30;44.70;;;;;;6285675;27;81920;-65
2022/05/17 07:06:42;;;;;;;7.97;3.78;;;24.30;44.70;;;;;;6285924;27;81179;-65
2022/05/17 07:13:07;;;;;;;7.78;3.55;;;24.30;44.90;;;;;;6286182;27;80621;-68
2022/05/17 07:13:10;;;;;;;10.55;3.38;;;24.30;44.80;;;;;;6280249;27;83386;-65
2022/05/17 07:16:11;;;;;;;11.35;3.72;;;24.30;44.80;;;;;;6285127;27;80441;-65
2022/05/17 07:19:11;;;;;;;7.13;3.65;;;24.30;44.60;;;;;;6283189;27;80707;-64
2022/05/17 07:22:12;;;;;;;17.58;3.67;;;24.30;44.80;;;;;;6285276;27;80546;-64
2022/05/17 07:25:13;;;;;;;6.88;3.55;;;24.30;44.90;;;;;;6285055;27;80390;-65
2022/05/17 07:28:14;;;;;;;12.30;4.40;;;24.30;44.90;;;;;;6284965;27;80482;-65
2022/05/17 07:31:15;;;;;;;23.35;3.80;;;24.30;45.00;;;;;;6284645;27;80484;-65
2022/05/17 07:34:15;;;;;;;10.15;3.90;;;24.40;45.00;;;;;;6284783;27;80330;-66
2022/05/17 07:37:16;;;;;;;11.95;3.92;;;24.40;45.00;;;;;;6284845;27;80494;-65
2022/05/17 07:40:16;;;;;;;9.13;3.58;;;24.40;45.00;;;;;;6283302;27;82478;-65
2022/05/17 07:43:17;;;;;;;8.20;4.15;;;24.40;44.90;;;;;;6284566;27;87153;-66
2022/05/17 07:46:17;;;;;;;6.70;3.40;;;24.40;45.00;;;;;;6285048;27;80461;-66
2022/05/17 07:49:18;;;;;;;7.53;3.50;;;24.40;45.20;;;;;;6284577;27;80417;-66
2022/05/17 07:52:18;;;;;;;10.23;3.60;;;24.40;45.20;;;;;;6284675;27;81507;-65
2022/05/17 07:55:20;;;;;;;13.75;4.38;;;24.40;45.00;;;;;;6284663;27;80667;-65
2022/05/17 07:58:21;;;;;;;8.68;3.72;;;24.40;45.00;;;;;;6284369;27;80706;-65
2022/05/17 08:01:22;;;;;;;6.22;2.90;;;24.40;45.10;;;;;;6284301;27;80412;-65
2022/05/17 08:04:25;;;;;;;6.43;3.25;;;24.50;45.20;;;;;;6268595;27;80439;-65
2022/05/17 08:07:26;;;;;;;8.95;4.22;;;24.50;45.20;;;;;;6281881;27;80345;-65
2022/05/17 08:10:26;;;;;;;9.68;3.88;;;24.50;45.50;;;;;;6284167;27;80380;-65
2022/05/17 08:13:29;;;;;;;8.77;3.53;;;24.50;45.60;;;;;;6283970;27;81459;-65
2022/05/17 08:16:30;;;;;;;13.30;3.80;;;24.50;45.60;;;;;;6279239;27;80870;-65
2022/05/17 08:19:32;;;;;;;9.70;3.53;;;24.50;45.50;;;;;;6283864;27;81350;-65
2022/05/17 08:22:33;;;;;;;7.43;3.35;;;24.60;45.50;;;;;;6284190;27;80993;-65
2022/05/17 08:28:52;;;;;;;16.80;3.58;;;24.60;45.70;;;;;;6284150;27;81021;-65
2022/05/17 08:35:12;;;;;;;13.57;4.30;;;24.60;45.50;;;;;;6279691;27;80523;-65
2022/05/17 08:38:13;;;;;;;7.00;3.35;;;24.60;45.40;;;;;;6283784;27;80326;-65
2022/05/17 08:41:13;;;;;;;6.30;3.10;;;24.60;45.60;;;;;;6283736;27;81234;-65
2022/05/17 08:44:14;;;;;;;7.13;3.47;;;24.60;45.20;;;;;;6284057;27;80432;-65
2022/05/17 08:47:15;;;;;;;11.40;3.67;;;24.60;45.00;;;;;;6282851;27;80981;-65
2022/05/17 08:50:15;;;;;;;4.13;2.72;;;24.60;45.40;;;;;;6283481;27;80507;-65
2022/05/17 08:53:16;;;;;;;6.65;3.03;;;24.60;45.30;;;;;;6278959;27;80107;-65
2022/05/17 08:56:16;;;;;;;3.88;2.55;;;24.70;45.10;;;;;;6283384;27;80816;-65
2022/05/17 08:59:17;;;;;;;6.05;3.38;;;24.70;45.30;;;;;;6283413;27;80807;-65
2022/05/17 09:02:17;;;;;;;4.30;2.95;;;24.70;44.90;;;;;;6283760;27;80215;-65
2022/05/17 09:05:18;;;;;;;12.80;3.25;;;24.70;45.10;;;;;;6272312;27;80500;-65
2022/05/17 09:08:18;;;;;;;6.72;2.97;;;24.70;44.80;;;;;;6283361;27;81239;-67
2022/05/17 09:11:19;;;;;;;4.03;2.22;;;24.70;44.90;;;;;;6282887;27;80092;-67
2022/05/17 09:14:20;;;;;;;6.53;2.60;;;24.70;45.00;;;;;;6282794;27;80695;-67
2022/05/17 09:17:22;;;;;;;5.72;3.17;;;24.80;44.70;;;;;;6281636;27;83062;-67
2022/05/17 09:20:23;;;;;;;9.38;2.97;;;24.80;44.60;;;;;;6283212;27;82560;-67
2022/05/17 09:23:24;;;;;;;6.28;2.92;;;24.70;45.20;;;;;;6282873;27;81303;-67
2022/05/17 09:26:24;;;;;;;7.15;2.53;;;24.80;44.70;;;;;;6281960;27;81892;-67
2022/05/17 09:29:25;;;;;;;6.03;2.80;;;24.80;44.60;;;;;;6282855;27;80358;-67
2022/05/17 09:32:25;;;;;;;9.13;3.13;;;24.80;44.50;;;;;;6282831;27;79965;-68
2022/05/17 09:35:27;;;;;;;4.20;2.72;;;24.80;44.20;;;;;;6282854;27;80460;-68
2022/05/17 09:38:27;;;;;;;5.28;2.83;;;24.80;44.20;;;;;;6283490;27;80438;-67
2022/05/17 09:41:28;;;;;;;5.80;2.33;;;24.80;44.10;;;;;;6283247;27;81027;-67
2022/05/17 09:44:29;;;;;;;4.15;2.38;;;24.80;44.30;;;;;;6283077;27;80375;-67
2022/05/17 09:47:29;;;;;;;4.78;2.60;;;24.80;44.30;;;;;;6282640;27;80501;-67
2022/05/17 09:53:49;;;;;;;6.15;2.55;;;24.80;44.30;;;;;;6282583;27;80398;-66
2022/05/17 09:56:50;;;;;;;7.90;2.30;;;24.80;43.90;;;;;;6281873;27;81415;-65
2022/05/17 09:59:50;;;;;;;3.40;2.00;;;24.80;43.80;;;;;;6281397;27;80556;-65
2022/05/17 10:02:51;;;;;;;4.68;2.42;;;24.80;43.90;;;;;;6280162;27;81401;-66
2022/05/17 10:05:51;;;;;;;2.85;1.80;;;24.90;43.90;;;;;;6280076;27;80880;-66
2022/05/17 10:08:52;;;;;;;4.00;1.98;;;24.80;43.90;;;;;;6269249;27;82598;-66
2022/05/17 10:11:52;;;;;;;3.05;2.00;;;24.80;43.90;;;;;;6281411;27;80363;-66
2022/05/17 10:14:53;;;;;;;4.72;2.10;;;24.80;43.50;;;;;;6282223;27;83013;-66
2022/05/17 10:17:55;;;;;;;8.90;2.75;;;24.80;43.50;;;;;;6282267;27;81749;-66
2022/05/17 10:20:56;;;;;;;5.03;2.55;;;24.80;43.60;;;;;;6281981;27;81190;-66
2022/05/17 10:23:56;;;;;;;3.05;2.17;;;24.80;43.50;;;;;;6282035;27;80348;-66
2022/05/17 10:26:57;;;;;;;4.22;2.05;;;24.80;43.40;;;;;;6281756;27;87065;-66
2022/05/17 10:29:59;;;;;;;5.47;2.25;;;24.90;43.50;;;;;;6281842;27;80352;-65
2022/05/17 10:33:00;;;;;;;2.75;2.20;;;24.90;43.50;;;;;;6281903;27;81289;-67
2022/05/17 10:36:01;;;;;;;2.75;2.15;;;24.80;43.70;;;;;;6281736;27;80436;-66
2022/05/17 10:39:01;;;;;;;5.38;2.20;;;24.80;43.40;;;;;;6281707;27;80230;-67
2022/05/17 10:42:02;;;;;;;3.20;2.10;;;24.80;43.70;;;;;;6281224;27;82171;-65
2022/05/17 10:45:02;;;;;;;5.20;2.25;;;24.90;43.30;;;;;;6281664;27;81443;-65
2022/05/17 10:48:03;;;;;;;3.25;1.92;;;24.90;43.50;;;;;;6281958;27;80149;-65
2022/05/17 10:51:03;;;;;;;4.25;2.50;;;24.90;43.70;;;;;;6276719;27;80444;-65
2022/05/17 10:54:04;;;;;;;5.35;2.28;;;24.90;43.40;;;;;;6281700;27;80253;-67
2022/05/17 10:57:04;;;;;;;3.17;1.80;;;24.90;43.60;;;;;;6281708;27;80492;-66
2022/05/17 11:00:09;;;;;;;5.55;2.15;;;24.90;43.30;;;;;;6281610;27;80580;-67
2022/05/17 11:03:10;;;;;;;5.55;2.88;;;24.90;43.30;;;;;;6281404;27;79941;-66
2022/05/17 11:06:11;;;;;;;3.33;1.83;;;24.90;43.20;;;;;;6279098;27;80440;-66
2022/05/17 11:09:11;;;;;;;1.98;1.77;;;24.90;43.50;;;;;;6281587;27;83466;-66
2022/05/17 11:12:12;;;;;;;2.85;1.75;;;24.90;43.20;;;;;;6285674;27;80877;-66
2022/05/17 11:15:12;;;;;;;6.90;1.95;;;25.00;43.50;;;;;;6285521;27;80367;-66
2022/05/17 11:18:15;;;;;;;3.80;1.85;;;24.90;43.20;;;;;;6285470;27;80807;-66
2022/05/17 11:21:16;;;;;;;2.72;2.03;;;24.90;43.20;;;;;;6285241;27;80382;-65
2022/05/17 11:24:16;;;;;;;2.55;1.98;;;24.90;43.20;;;;;;6285669;27;80461;-67
2022/05/17 11:27:20;;;;;;;2.65;1.73;;;24.90;43.00;;;;;;6280744;27;80006;-66
2022/05/17 11:30:21;;;;;;;4.75;2.05;;;24.90;43.00;;;;;;6285008;27;81792;-66
2022/05/17 11:33:21;;;;;;;5.10;2.17;;;24.90;42.70;;;;;;6285455;27;80204;-67
2022/05/17 11:36:22;;;;;;;3.28;1.65;;;24.90;43.10;;;;;;6285442;27;80643;-67
2022/05/17 11:39:22;;;;;;;5.15;2.45;;;24.90;42.50;;;;;;6279267;27;81296;-66
2022/05/17 11:42:23;;;;;;;2.88;1.65;;;25.00;42.70;;;;;;6279484;27;80720;-68
2022/05/17 11:45:24;;;;;;;1.75;1.50;;;24.90;42.00;;;;;;6278936;27;80948;-67
2022/05/17 11:48:25;;;;;;;4.05;1.80;;;24.80;40.20;;;;;;6281060;27;80328;-68
2022/05/17 11:51:25;;;;;;;2.17;1.60;;;24.80;40.00;;;;;;6279906;27;80263;-68
2022/05/17 11:54:26;;;;;;;3.60;1.95;;;24.80;39.20;;;;;;6274353;27;81544;-69
2022/05/17 11:57:26;;;;;;;1.55;1.45;;;24.80;38.80;;;;;;6284694;27;80401;-68
2022/05/17 12:00:27;;;;;;;10.27;1.50;;;24.70;37.90;;;;;;6270713;27;81554;-68
2022/05/17 12:03:28;;;;;;;2.03;1.50;;;24.70;37.70;;;;;;6280258;27;81157;-69
2022/05/17 12:06:28;;;;;;;5.38;1.88;;;24.60;37.10;;;;;;6284323;27;81261;-69
2022/05/17 12:09:29;;;;;;;6.15;1.60;;;24.60;37.00;;;;;;6275946;27;80046;-67
2022/05/17 12:12:30;;;;;;;3.33;1.35;;;24.60;37.20;;;;;;6283333;27;80661;-67
2022/05/17 12:15:32;;;;;;;3.42;1.83;;;24.60;37.00;;;;;;6281769;27;80326;-68
2022/05/17 12:18:32;;;;;;;2.05;1.50;;;24.50;36.70;;;;;;6275977;27;81061;-68
2022/05/17 12:21:33;;;;;;;4.72;1.65;;;24.50;37.00;;;;;;6277021;27;80564;-68
2022/05/17 12:24:33;;;;;;;4.72;2.13;;;24.50;36.60;;;;;;6274210;27;83825;-69
2022/05/17 12:27:34;;;;;;;2.38;1.50;;;24.40;36.30;;;;;;6276226;27;80316;-69
2022/05/17 12:30:53;;;;;;;4.97;1.80;;;24.40;36.10;;;;;;6274234;27;80352;-69
2022/05/17 12:33:53;;;;;;;3.88;2.05;;;24.30;36.10;;;;;;6280511;27;80539;-67
2022/05/17 12:36:54;;;;;;;5.90;2.30;;;24.30;36.20;;;;;;6280455;27;80534;-70
2022/05/17 12:43:14;;;;;;;5.55;1.83;;;24.20;36.20;;;;;;6277898;27;84828;-67
2022/05/17 12:46:14;;;;;;;3.08;1.67;;;24.20;36.20;;;;;;6276177;27;80198;-68
2022/05/17 12:49:15;;;;;;;2.45;1.40;;;24.10;36.10;;;;;;6273636;27;81540;-69
2022/05/17 12:52:15;;;;;;;3.63;1.80;;;24.10;36.10;;;;;;6277189;27;81252;-68
2022/05/17 12:55:16;;;;;;;2.50;1.60;;;24.00;36.20;;;;;;6275030;27;80525;-69
2022/05/17 12:58:16;;;;;;;2.78;1.92;;;24.00;36.10;;;;;;6276450;27;81682;-68
2022/05/17 13:01:18;;;;;;;3.08;1.63;;;24.00;36.40;;;;;;6282546;27;84994;-65
2022/05/17 13:04:19;;;;;;;5.80;1.92;;;24.10;36.50;;;;;;6282445;27;80322;-66
2022/05/17 13:07:19;;;;;;;6.00;2.00;;;24.10;36.80;;;;;;6281824;27;80509;-66
2022/05/17 13:10:20;;;;;;;3.50;1.88;;;24.10;36.90;;;;;;6280133;27;81451;-65
2022/05/17 13:13:21;;;;;;;4.03;1.90;;;24.20;36.70;;;;;;6284153;27;80020;-66
2022/05/17 13:16:21;;;;;;;4.93;2.10;;;24.20;36.30;;;;;;6282827;27;80489;-67
2022/05/17 13:19:21;;;;;;;7.82;1.73;;;24.10;36.10;;;;;;6278939;27;80429;-67
2022/05/17 13:22:22;;;;;;;3.45;1.73;;;24.00;36.10;;;;;;6283192;27;86349;-66
2022/05/17 13:25:23;;;;;;;2.80;1.50;;;24.00;36.00;;;;;;6283505;27;80435;-66
2022/05/17 13:28:24;;;;;;;4.88;1.50;;;24.00;36.10;;;;;;6283155;27;80487;-66
2022/05/17 13:31:26;;;;;;;7.30;1.60;;;24.00;36.10;;;;;;6283789;27;80344;-65
2022/05/17 13:34:27;;;;;;;2.70;1.63;;;23.90;36.10;;;;;;6278044;27;80544;-65
2022/05/17 13:37:29;;;;;;;3.47;1.70;;;24.00;36.30;;;;;;6282904;27;87183;-66
2022/05/17 13:40:30;;;;;;;3.78;2.05;;;24.00;36.40;;;;;;6283185;27;80664;-66
2022/05/17 13:43:36;;;;;;;2.75;1.73;;;24.00;36.30;;;;;;6272151;27;81472;-66
2022/05/17 13:46:36;;;;;;;8.05;2.33;;;24.00;36.30;;;;;;6281220;27;80909;-66
2022/05/17 13:49:37;;;;;;;9.55;2.40;;;23.90;36.00;;;;;;6278218;27;80345;-66
2022/05/17 13:52:37;;;;;;;7.47;2.53;;;23.90;36.00;;;;;;6282961;27;80712;-66
2022/05/17 13:55:38;;;;;;;7.10;2.28;;;23.90;36.10;;;;;;6282947;27;80379;-66
2022/05/17 13:58:38;;;;;;;14.75;2.33;;;23.90;35.90;;;;;;6276641;27;80515;-65
2022/05/17 14:01:39;;;;;;;6.38;1.73;;;23.80;35.90;;;;;;6275284;27;80306;-65
2022/05/17 14:04:40;;;;;;;4.53;1.50;;;23.90;36.20;;;;;;6272767;27;80058;-67
2022/05/17 14:07:41;;;;;;;3.22;1.80;;;24.00;36.50;;;;;;6277448;27;81190;-70
2022/05/17 14:14:00;;;;;;;7.18;2.45;;;24.10;37.00;;;;;;6267973;27;82059;-66
2022/05/17 14:17:02;;;;;;;5.65;2.22;;;24.10;36.70;;;;;;6271396;27;80628;-67
2022/05/17 14:20:02;;;;;;;7.63;2.15;;;24.10;36.50;;;;;;6270073;27;80677;-67
2022/05/17 14:23:03;;;;;;;6.63;1.80;;;24.00;36.20;;;;;;6271961;27;81549;-66
2022/05/17 14:26:04;;;;;;;10.57;1.95;;;24.00;36.20;;;;;;6274510;27;80155;-68
2022/05/17 14:29:04;;;;;;;4.60;1.90;;;24.00;36.30;;;;;;6269765;27;80458;-67
2022/05/17 14:32:05;;;;;;;8.27;1.88;;;24.00;36.50;;;;;;6269678;27;81038;-67
2022/05/17 14:35:06;;;;;;;9.43;2.00;;;24.10;36.50;;;;;;6273134;27;81757;-68
2022/05/17 14:38:07;;;;;;;5.60;2.10;;;24.10;36.40;;;;;;6276594;27;80407;-69
2022/05/17 14:41:07;;;;;;;4.80;2.00;;;24.10;36.50;;;;;;6282103;27;80988;-67
2022/05/17 14:44:08;;;;;;;4.97;1.90;;;24.20;36.80;;;;;;6276946;27;80547;-66
2022/05/17 14:47:09;;;;;;;6.05;1.80;;;24.20;36.30;;;;;;6281369;27;80250;-66
2022/05/17 14:50:10;;;;;;;2.83;1.70;;;24.20;36.70;;;;;;6286571;27;80917;-66
2022/05/17 14:53:10;;;;;;;4.53;1.80;;;24.30;36.70;;;;;;6283588;27;80649;-66
2022/05/17 14:56:11;;;;;;;2.95;1.83;;;24.30;37.00;;;;;;6286652;27;80879;-65
2022/05/17 14:59:12;;;;;;;3.70;1.55;;;24.40;37.20;;;;;;6279744;27;80583;-66
2022/05/17 15:02:13;;;;;;;3.42;1.77;;;24.40;37.30;;;;;;6286331;27;80386;-67
2022/05/17 15:05:15;;;;;;;8.68;2.30;;;24.40;37.30;;;;;;6281727;27;80799;-67
2022/05/17 15:08:16;;;;;;;3.63;1.85;;;24.50;37.60;;;;;;6286090;27;80333;-68
2022/05/17 15:11:19;;;;;;;2.90;1.88;;;24.50;37.60;;;;;;6270339;27;80600;-65
2022/05/17 15:14:20;;;;;;;4.35;1.75;;;24.50;37.80;;;;;;6277271;27;80438;-66
2022/05/17 15:17:21;;;;;;;3.78;1.80;;;24.60;38.10;;;;;;6274682;27;81336;-66
2022/05/17 15:20:22;;;;;;;7.22;2.15;;;24.60;37.90;;;;;;6280158;27;80648;-66
2022/05/17 15:23:23;;;;;;;3.63;2.05;;;24.60;37.90;;;;;;6279861;27;80691;-66
2022/05/17 15:26:24;;;;;;;3.97;1.92;;;24.60;38.00;;;;;;6278763;27;80291;-66
2022/05/17 15:29:24;;;;;;;3.83;1.58;;;24.60;38.10;;;;;;6282914;27;80539;-65
2022/05/17 15:32:25;;;;;;;5.60;2.17;;;24.60;38.40;;;;;;6277035;27;81308;-67
2022/05/17 15:35:25;;;;;;;3.85;2.10;;;24.60;38.30;;;;;;6284745;27;80204;-66
2022/05/17 15:38:26;;;;;;;3.72;1.67;;;24.60;38.40;;;;;;6268448;27;80577;-68
2022/05/17 15:41:27;;;;;;;4.53;1.50;;;24.60;38.70;;;;;;6270181;27;80441;-68
2022/05/17 15:44:27;;;;;;;2.88;1.63;;;24.60;39.00;;;;;;6285133;27;80288;-66
2022/05/17 15:54:07;;;;;;;5.13;1.85;;;24.60;38.80;;;;;;6283453;27;83474;-66
2022/05/17 15:57:09;;;;;;;3.63;1.73;;;24.60;38.70;;;;;;6281711;27;80648;-67
2022/05/17 16:00:11;;;;;;;4.22;1.60;;;24.70;38.60;;;;;;6275575;27;80722;-69
2022/05/17 16:03:15;;;;;;;5.78;1.65;;;24.60;38.80;;;;;;6276807;27;80649;-66
2022/05/17 16:06:15;;;;;;;3.65;2.03;;;24.60;38.80;;;;;;6282640;27;81631;-66
2022/05/17 16:09:16;;;;;;;3.55;1.83;;;24.60;38.60;;;;;;6282409;27;81705;-65